Time;durP1;ratioP1;P1;durP2;ratioP2;P2;SDS_P1;SDS_P2;PMS_P1;PMS_P2;Temp;Humidity;BMP_temperature;BMP_pressure;BME280_temperature;BME280_humidity;BME280_pressure;Samples;Min_cycle;Max_cycle;Signal;HPM_P1;HPM_P2
2022/06/20 00:01:36;;;;;;;7.85;3.92;;;;;;;17.39;55.91;98231.02;1455463;80;21078;-70
2022/06/20 00:03:41;;;;;;;9.78;3.67;;;;;;;17.33;56.02;98229.27;1474913;79;81562;-71
2022/06/20 00:05:42;;;;;;;6.08;3.98;;;;;;;17.31;56.09;98226.39;1476169;79;20987;-71
2022/06/20 00:07:43;;;;;;;6.42;3.87;;;;;;;17.26;56.21;98224.61;1476841;80;21552;-70
2022/06/20 00:09:44;;;;;;;14.90;4.53;;;;;;;17.25;56.32;98225.58;1473248;79;80582;-71
2022/06/20 00:11:48;;;;;;;12.43;3.98;;;;;;;17.24;56.35;98230.55;1476224;79;21539;-71
2022/06/20 00:13:52;;;;;;;11.12;3.75;;;;;;;17.19;56.47;98226.46;1482001;78;20987;-71
2022/06/20 00:16:00;;;;;;;4.10;3.70;;;;;;;17.16;56.54;98222.75;1486270;78;81954;-71
2022/06/20 00:18:04;;;;;;;5.10;4.05;;;;;;;17.13;56.65;98221.69;1487564;78;21604;-70
2022/06/20 00:20:06;;;;;;;17.37;4.58;;;;;;;17.08;56.76;98217.25;1488541;78;21054;-70
2022/06/20 00:22:07;;;;;;;4.45;3.83;;;;;;;17.04;56.80;98219.82;1487006;78;80709;-70
2022/06/20 00:24:08;;;;;;;6.05;3.83;;;;;;;17.04;56.95;98226.98;1487677;78;21100;-71
2022/06/20 00:26:09;;;;;;;12.40;4.08;;;;;;;17.01;57.10;98228.91;1488643;78;20987;-70
2022/06/20 00:28:12;;;;;;;13.62;4.25;;;;;;;16.96;57.19;98235.61;1486557;78;81082;-70
2022/06/20 00:30:15;;;;;;;14.03;4.28;;;;;;;16.84;57.29;98226.86;1487978;78;21024;-70
2022/06/20 00:32:16;;;;;;;3.92;3.62;;;;;;;16.81;57.31;98235.95;1487995;78;21034;-70
2022/06/20 00:34:17;;;;;;;13.13;4.03;;;;;;;16.75;57.40;98236.45;1487500;78;81859;-70
2022/06/20 00:36:18;;;;;;;10.53;4.10;;;;;;;16.69;57.46;98239.16;1488196;78;21262;-71
2022/06/20 00:38:21;;;;;;;9.78;3.35;;;;;;;16.65;57.56;98247.55;1487936;78;20986;-70
2022/06/20 00:40:35;;;;;;;9.48;3.85;;;;;;;16.59;57.60;98252.06;1486615;78;81209;-70
2022/06/20 00:42:36;;;;;;;15.43;4.12;;;;;;;16.55;57.66;98251.97;1488340;78;21057;-70
2022/06/20 00:44:41;;;;;;;9.33;3.70;;;;;;;16.53;57.75;98253.91;1488082;78;20995;-70
2022/06/20 00:46:49;;;;;;;4.97;3.80;;;;;;;16.55;57.84;98257.30;1487059;79;81364;-70
2022/06/20 00:48:54;;;;;;;9.98;4.15;;;;;;;16.61;57.89;98268.73;1487835;78;20987;-70
2022/06/20 00:50:58;;;;;;;9.70;4.10;;;;;;;16.65;57.80;98262.17;1487779;78;20975;-71
2022/06/20 00:53:15;;;;;;;12.75;3.92;;;;;;;16.68;57.75;98256.59;1486724;78;80621;-70
2022/06/20 00:55:29;;;;;;;3.72;3.40;;;;;;;16.72;57.74;98255.35;1488091;78;21042;-70
2022/06/20 00:57:36;;;;;;;7.97;3.40;;;;;;;16.75;57.73;98251.09;1486595;78;80673;-71
2022/06/20 00:59:41;;;;;;;5.03;3.65;;;;;;;16.70;57.76;98244.02;1490714;78;21066;-71
2022/06/20 01:01:42;;;;;;;8.53;4.03;;;;;;;16.67;57.74;98254.92;1479779;79;21103;-71
2022/06/20 01:03:52;;;;;;;11.63;4.28;;;;;;;16.66;57.85;98260.71;1478195;79;80643;-71
2022/06/20 01:06:04;;;;;;;8.75;4.25;;;;;;;16.64;58.02;98261.81;1478111;79;20975;-69
2022/06/20 01:08:09;;;;;;;;;;;;;;;16.60;58.14;98257.72;1482210;79;21033;-70
2022/06/20 01:10:13;;;;;;;10.70;3.70;;;;;;;16.53;58.41;98249.91;1476354;79;67145;-70
2022/06/20 01:12:17;;;;;;;15.25;4.53;;;;;;;16.53;58.41;98248.58;1459195;80;20945;-70
2022/06/20 01:14:34;;;;;;;5.50;3.70;;;;;;;16.46;58.50;98237.61;1436115;82;21052;-70
2022/06/20 01:16:36;;;;;;;9.10;3.60;;;;;;;16.48;58.48;98237.84;1447157;82;81192;-70
2022/06/20 01:18:38;;;;;;;8.55;4.35;;;;;;;16.48;58.47;98237.84;1443664;81;21068;-70
2022/06/20 01:20:39;;;;;;;10.03;4.40;;;;;;;16.49;58.55;98240.87;1439059;81;21533;-70
2022/06/20 01:23:05;;;;;;;7.15;4.17;;;;;;;16.49;58.56;98237.34;1439038;82;80729;-70
2022/06/20 01:25:18;;;;;;;9.08;4.62;;;;;;;16.49;58.60;98236.88;1478786;79;21042;-70
2022/06/20 01:27:25;;;;;;;4.67;4.22;;;;;;;16.49;58.59;98236.02;1475956;79;80757;-69
2022/06/20 01:29:26;;;;;;;6.70;3.62;;;;;;;16.50;58.68;98236.38;1477453;80;21023;-69
2022/06/20 01:31:31;;;;;;;9.98;4.20;;;;;;;16.48;58.64;98235.19;1478699;79;22242;-70
2022/06/20 01:33:32;;;;;;;5.12;3.47;;;;;;;16.47;58.77;98228.17;1476761;79;81988;-69
2022/06/20 01:37:55;;;;;;;8.13;4.37;;;;;;;16.42;58.90;98228.20;1479279;79;21067;-70
2022/06/20 01:40:06;;;;;;;8.60;4.53;;;;;;;16.41;58.92;98238.01;1477694;79;80922;-70
2022/06/20 01:42:19;;;;;;;5.45;4.37;;;;;;;16.44;58.90;98225.77;1478318;79;21047;-70
2022/06/20 01:44:21;;;;;;;12.13;4.28;;;;;;;16.42;59.00;98214.44;1478377;79;21440;-71
2022/06/20 01:46:29;;;;;;;9.13;4.65;;;;;;;16.42;58.99;98219.76;1478636;79;80818;-70
2022/06/20 01:48:32;;;;;;;8.85;5.17;;;;;;;16.38;58.98;98220.98;1478917;79;21033;-71
2022/06/20 01:50:35;;;;;;;9.65;4.17;;;;;;;16.38;58.98;98220.98;1479560;80;21841;-70
2022/06/20 01:52:39;;;;;;;8.43;4.42;;;;;;;16.37;59.25;98225.94;1477641;78;81462;-70
2022/06/20 01:54:43;;;;;;;4.40;4.05;;;;;;;16.31;59.29;98198.05;1456267;80;21035;-70
2022/06/20 01:56:47;;;;;;;7.60;4.03;;;;;;;16.23;59.40;98190.38;1478271;79;21031;-69
2022/06/20 01:59:00;;;;;;;10.45;4.30;;;;;;;16.21;59.52;98198.95;1477632;79;81900;-70
2022/06/20 02:01:03;;;;;;;6.97;4.12;;;;;;;16.25;59.58;98213.67;1476099;79;21075;-70
2022/06/20 02:03:07;;;;;;;12.63;4.40;;;;;;;16.09;59.89;98192.37;1479054;79;21155;-70
2022/06/20 02:05:12;;;;;;;7.05;4.58;;;;;;;16.09;59.89;98192.37;1477293;79;81561;-70
2022/06/20 02:07:15;;;;;;;8.85;4.22;;;;;;;16.07;60.02;98210.24;1478914;79;21047;-70
2022/06/20 02:09:16;;;;;;;10.58;4.92;;;;;;;16.07;60.02;98210.24;1478977;79;20979;-70
2022/06/20 02:11:27;;;;;;;16.82;4.75;;;;;;;16.14;59.97;98231.38;1478441;79;81762;-70
2022/06/20 02:13:29;;;;;;;5.83;4.37;;;;;;;16.16;60.03;98248.03;1478048;79;20980;-70
2022/06/20 02:15:32;;;;;;;9.70;4.08;;;;;;;16.19;60.07;98229.66;1477759;79;81787;-71
2022/06/20 02:17:39;;;;;;;8.60;4.42;;;;;;;16.20;60.09;98223.84;1478575;79;20997;-70
2022/06/20 02:19:47;;;;;;;7.60;4.20;;;;;;;16.11;60.12;98211.67;1479366;79;21008;-70
2022/06/20 02:21:48;;;;;;;7.12;4.03;;;;;;;16.05;60.22;98216.19;1478218;79;81416;-70
2022/06/20 02:23:52;;;;;;;4.58;3.92;;;;;;;16.06;60.29;98219.22;1479366;80;21522;-70
2022/06/20 02:25:56;;;;;;;13.38;4.40;;;;;;;16.06;60.38;98210.37;1479666;79;21007;-71
2022/06/20 02:28:00;;;;;;;4.62;3.90;;;;;;;16.02;60.45;98206.28;1477164;79;80901;-70
2022/06/20 02:30:03;;;;;;;18.48;5.08;;;;;;;15.96;60.47;98207.17;1432705;81;21346;-70
2022/06/20 02:32:11;;;;;;;5.60;5.05;;;;;;;15.96;60.47;98207.17;1431197;81;21575;-70
2022/06/20 02:34:12;;;;;;;5.60;4.50;;;;;;;15.96;60.70;98215.61;1428697;81;81591;-69
2022/06/20 02:36:13;;;;;;;;;;;;;;;15.97;60.83;98216.81;1434287;82;21040;-69
2022/06/20 02:38:14;;;;;;;;;;;;;;;15.96;61.08;98212.48;1482045;80;20139;-69
2022/06/20 02:40:18;;;;;;;13.08;4.08;;;;;;;15.91;61.12;98208.50;1477964;80;68069;-70
2022/06/20 02:42:32;;;;;;;11.78;3.87;;;;;;;15.85;60.99;98207.69;1480096;79;20978;-70
2022/06/20 02:44:34;;;;;;;4.35;3.95;;;;;;;15.69;61.10;98185.01;1480051;79;21046;-70
2022/06/20 02:46:37;;;;;;;8.13;4.60;;;;;;;15.69;61.10;98185.01;1477969;79;81629;-69
2022/06/20 02:48:41;;;;;;;16.65;4.78;;;;;;;15.72;61.18;98203.34;1478865;79;20983;-69
2022/06/20 02:50:51;;;;;;;11.97;4.37;;;;;;;15.71;61.29;98206.97;1479575;79;21041;-70
2022/06/20 02:52:56;;;;;;;10.03;4.50;;;;;;;15.74;61.34;98200.09;1476410;79;81414;-70
2022/06/20 02:54:58;;;;;;;6.67;4.62;;;;;;;15.71;61.45;98196.34;1476278;79;21023;-70
2022/06/20 02:57:03;;;;;;;7.90;4.42;;;;;;;15.68;61.50;98199.75;1478878;79;20999;-70
2022/06/20 02:59:07;;;;;;;12.13;4.28;;;;;;;15.68;61.55;98203.23;1477272;79;81621;-70
2022/06/20 03:01:15;;;;;;;5.10;4.15;;;;;;;15.72;61.69;98213.98;1478174;79;21106;-70
2022/06/20 03:03:25;;;;;;;9.98;4.33;;;;;;;15.78;61.66;98222.79;1477356;79;21070;-69
2022/06/20 03:05:28;;;;;;;5.72;4.60;;;;;;;15.80;61.67;98214.23;1478778;79;21043;-70
2022/06/20 03:07:33;;;;;;;17.02;5.00;;;;;;;15.87;61.71;98203.08;1478827;79;21026;-70
2022/06/20 03:09:37;;;;;;;7.62;4.55;;;;;;;15.81;61.79;98184.03;1475528;79;81673;-71
2022/06/20 03:11:39;;;;;;;11.48;4.62;;;;;;;15.81;61.78;98195.99;1479601;79;21031;-70
2022/06/20 03:13:42;;;;;;;9.48;4.40;;;;;;;15.86;61.89;98214.70;1478052;79;21019;-70
2022/06/20 03:15:44;;;;;;;7.72;4.33;;;;;;;15.87;61.85;98221.67;1478731;78;80546;-71
2022/06/20 03:17:47;;;;;;;10.13;4.90;;;;;;;15.89;61.95;98210.45;1480468;80;21531;-69
2022/06/20 03:19:52;;;;;;;15.08;4.85;;;;;;;15.88;61.93;98223.38;1481019;79;21073;-70
2022/06/20 03:21:55;;;;;;;12.35;5.42;;;;;;;15.87;62.02;98229.19;1478176;79;80764;-70
2022/06/20 03:23:57;;;;;;;10.20;4.53;;;;;;;15.87;62.02;98229.19;1460471;80;21543;-69
2022/06/20 03:26:01;;;;;;;8.05;4.67;;;;;;;15.95;62.08;98229.86;1478880;78;21055;-69
2022/06/20 03:28:02;;;;;;;6.25;4.40;;;;;;;15.96;62.13;98215.61;1478201;79;81429;-70
2022/06/20 03:30:20;;;;;;;13.70;4.60;;;;;;;16.00;62.20;98225.02;1479014;79;21015;-70
2022/06/20 03:32:23;;;;;;;9.63;4.78;;;;;;;16.02;62.21;98211.13;1479726;79;20983;-70
2022/06/20 03:34:24;;;;;;;8.18;4.92;;;;;;;16.05;62.33;98203.36;1478204;79;81448;-70
2022/06/20 03:36:26;;;;;;;;;;;;;;;16.08;62.37;98210.61;1483267;79;21652;-70
2022/06/20 03:38:27;;;;;;;16.42;4.78;;;;;;;16.14;62.58;98224.73;1480590;80;20131;-71
2022/06/20 03:40:28;;;;;;;10.50;4.65;;;;;;;16.19;62.61;98227.50;1479031;78;81706;-70
2022/06/20 03:42:29;;;;;;;23.02;5.00;;;;;;;16.25;62.53;98225.64;1463676;80;21004;-70
2022/06/20 03:44:49;;;;;;;12.82;4.42;;;;;;;16.22;62.51;98209.45;1432633;82;21102;-70
2022/06/20 03:47:06;;;;;;;9.18;4.72;;;;;;;16.23;62.55;98202.34;1453288;81;81615;-70
2022/06/20 03:49:38;;;;;;;5.80;4.12;;;;;;;16.26;62.56;98203.41;1478365;79;21485;-70
2022/06/20 03:51:42;;;;;;;19.90;4.80;;;;;;;16.34;62.64;98215.57;1476550;79;81925;-70
2022/06/20 03:53:47;;;;;;;11.88;5.12;;;;;;;16.44;62.65;98216.47;1479131;78;21031;-70
2022/06/20 03:56:05;;;;;;;7.90;5.35;;;;;;;16.53;62.57;98216.16;1479260;79;21058;-70
2022/06/20 04:00:40;;;;;;;34.05;5.12;;;;;;;16.74;62.48;98226.81;1503657;77;22596;-69
2022/06/20 04:02:49;;;;;;;10.30;4.70;;;;;;;16.74;62.58;98231.27;1468044;80;21547;-70
2022/06/20 04:05:02;;;;;;;9.68;4.90;;;;;;;16.77;62.62;98227.88;1423715;78;81642;-70
2022/06/20 04:07:10;;;;;;;14.90;5.05;;;;;;;16.86;62.58;98224.89;1408114;83;21054;-70
2022/06/20 04:11:49;;;;;;;15.10;5.10;;;;;;;17.00;62.50;98222.39;1409683;83;21548;-70
2022/06/20 04:13:54;;;;;;;10.90;5.37;;;;;;;17.09;62.47;98225.59;1408945;83;20974;-70
2022/06/20 04:16:18;;;;;;;12.13;4.42;;;;;;;17.18;62.43;98238.11;1415942;82;80829;-69
2022/06/20 04:18:29;;;;;;;32.80;5.67;;;;;;;17.28;62.39;98240.81;1433398;81;21019;-69
2022/06/20 04:20:46;;;;;;;10.72;5.05;;;;;;;17.36;62.34;98238.78;1434100;81;21438;-69
2022/06/20 04:22:50;;;;;;;11.12;4.92;;;;;;;17.44;62.37;98241.62;1432140;80;80997;-69
2022/06/20 04:25:07;;;;;;;15.55;4.97;;;;;;;17.53;62.29;98243.48;1433141;81;21477;-69
2022/06/20 04:27:30;;;;;;;12.55;5.20;;;;;;;17.59;62.22;98242.59;1435339;81;21474;-69
2022/06/20 04:29:35;;;;;;;16.90;4.80;;;;;;;17.65;62.13;98236.70;1417658;82;21025;-69
2022/06/20 04:31:39;;;;;;;11.10;4.95;;;;;;;17.71;62.10;98233.50;1416185;82;21028;-70
2022/06/20 04:33:47;;;;;;;15.53;5.53;;;;;;;17.82;62.10;98229.37;1419450;82;81707;-69
2022/06/20 04:35:51;;;;;;;24.52;4.90;;;;;;;17.95;62.13;98230.45;1437027;80;21015;-69
2022/06/20 04:37:56;;;;;;;13.40;4.83;;;;;;;18.06;62.04;98239.32;1437027;82;21063;-70
2022/06/20 04:40:13;;;;;;;23.80;5.45;;;;;;;18.15;62.01;98241.13;1433998;80;81681;-68
2022/06/20 04:42:23;;;;;;;17.45;5.25;;;;;;;18.21;61.77;98252.08;1425751;82;21045;-70
2022/06/20 04:44:40;;;;;;;20.72;4.97;;;;;;;18.29;61.80;98256.72;1425289;82;21026;-69
2022/06/20 04:46:48;;;;;;;18.50;5.30;;;;;;;18.41;61.80;98253.91;1422302;82;81622;-69
2022/06/20 04:48:50;;;;;;;15.55;5.42;;;;;;;18.54;61.61;98259.30;1424121;82;21549;-69
2022/06/20 04:50:55;;;;;;;29.30;5.75;;;;;;;18.62;61.50;98254.59;1428402;82;21054;-70
2022/06/20 04:52:59;;;;;;;41.92;5.72;;;;;;;18.65;61.45;98246.77;1424607;82;80710;-70
2022/06/20 04:55:01;;;;;;;37.38;5.42;;;;;;;18.79;61.30;98251.67;1426618;82;21041;-69
2022/06/20 04:57:02;;;;;;;30.75;6.10;;;;;;;18.87;61.22;98255.83;1426550;82;21022;-69
2022/06/20 04:59:06;;;;;;;43.25;5.05;;;;;;;18.97;61.20;98257.61;1421776;81;81609;-69
2022/06/20 05:01:09;;;;;;;21.20;5.40;;;;;;;19.03;61.14;98245.85;1414820;83;20997;-70
2022/06/20 05:03:13;;;;;;;24.77;5.20;;;;;;;19.11;61.00;98249.14;1415846;82;21040;-70
2022/06/20 05:05:18;;;;;;;16.45;5.10;;;;;;;19.18;61.05;98249.41;1449916;80;81433;-70
2022/06/20 05:07:26;;;;;;;18.98;4.75;;;;;;;19.26;60.87;98253.99;1449936;80;20995;-70
2022/06/20 05:09:33;;;;;;;11.53;4.45;;;;;;;19.34;60.80;98260.78;1448611;80;81817;-70
2022/06/20 05:11:37;;;;;;;13.13;5.10;;;;;;;19.39;60.73;98257.18;1451741;80;21107;-69
2022/06/20 05:13:51;;;;;;;12.63;4.90;;;;;;;19.47;60.58;98253.78;1450264;80;21007;-70
2022/06/20 05:15:53;;;;;;;14.90;5.00;;;;;;;19.55;60.48;98253.88;1425503;83;80718;-69
2022/06/20 05:17:56;;;;;;;27.13;6.05;;;;;;;19.65;60.19;98255.16;1426761;83;21357;-69
2022/06/20 05:20:01;;;;;;;28.85;5.12;;;;;;;19.73;60.18;98257.92;1426587;83;21030;-69
2022/06/20 05:22:06;;;;;;;25.15;5.03;;;;;;;19.80;60.14;98261.70;1425476;81;81642;-69
2022/06/20 05:24:15;;;;;;;28.10;5.15;;;;;;;19.86;60.17;98263.77;1427582;81;21069;-69
2022/06/20 05:26:25;;;;;;;12.75;4.40;;;;;;;19.92;59.99;98262.82;1427579;81;21007;-69
2022/06/20 05:28:28;;;;;;;22.98;5.12;;;;;;;20.00;59.84;98264.24;1426851;81;81107;-70
2022/06/20 05:30:33;;;;;;;7.87;4.15;;;;;;;20.11;59.71;98266.69;1428371;83;21048;-69
2022/06/20 05:32:38;;;;;;;26.75;4.85;;;;;;;20.20;59.84;98259.09;1428969;83;21070;-70
2022/06/20 05:34:44;;;;;;;17.30;4.50;;;;;;;20.30;59.63;98258.16;1418688;81;81116;-69
2022/06/20 05:37:00;;;;;;;19.12;4.65;;;;;;;20.38;59.64;98256.88;1428674;83;21637;-69
2022/06/20 05:39:23;;;;;;;19.48;4.10;;;;;;;20.47;59.46;98260.49;1429135;81;21046;-70
2022/06/20 05:41:24;;;;;;;6.53;3.98;;;;;;;20.58;59.16;98257.05;1359666;86;21660;-70
2022/06/20 05:43:27;;;;;;;20.60;4.90;;;;;;;20.70;59.23;98255.02;1363093;86;20991;-70
2022/06/20 05:45:30;;;;;;;13.45;3.75;;;;;;;20.79;58.97;98263.11;1359173;86;80953;-70
2022/06/20 05:47:34;;;;;;;12.40;4.33;;;;;;;20.89;58.80;98266.51;1359264;86;21201;-70
2022/06/20 05:49:42;;;;;;;18.57;4.10;;;;;;;20.98;58.58;98268.25;1359406;86;21034;-70
2022/06/20 05:51:46;;;;;;;8.90;3.87;;;;;;;21.10;58.39;98272.86;1357962;86;81766;-69
2022/06/20 05:54:00;;;;;;;26.65;4.28;;;;;;;21.19;58.31;98268.38;1359603;86;21581;-70
2022/06/20 05:56:04;;;;;;;13.45;3.60;;;;;;;21.29;58.16;98265.58;1360860;86;21070;-69
2022/06/20 05:58:09;;;;;;;15.80;4.05;;;;;;;21.38;57.99;98267.30;1361864;85;81081;-69
2022/06/20 06:00:22;;;;;;;8.95;3.80;;;;;;;21.48;58.02;98268.52;1359819;86;21094;-69
2022/06/20 06:02:39;;;;;;;13.13;4.00;;;;;;;21.56;57.99;98258.69;1362747;86;21059;-69
2022/06/20 06:04:49;;;;;;;13.00;3.70;;;;;;;21.62;57.82;98253.68;1335392;86;82172;-69
2022/06/20 06:06:54;;;;;;;14.53;4.50;;;;;;;21.78;57.64;98261.78;1325285;88;21502;-69
2022/06/20 06:09:14;;;;;;;21.05;4.28;;;;;;;21.86;57.34;98265.83;1326394;88;21569;-69
2022/06/20 06:11:31;;;;;;;21.68;4.20;;;;;;;21.93;57.46;98259.28;1337237;87;81676;-70
2022/06/20 06:13:50;;;;;;;13.88;4.42;;;;;;;21.97;57.47;98259.80;1338084;87;21056;-69
2022/06/20 06:18:28;;;;;;;17.40;4.20;;;;;;;22.10;57.40;98252.95;1348408;86;21035;-70
2022/06/20 06:20:32;;;;;;;10.70;3.87;;;;;;;22.16;57.38;98247.42;1349635;86;21031;-69
2022/06/20 06:22:43;;;;;;;28.25;3.72;;;;;;;22.23;57.20;98241.72;1348605;86;82493;-69
2022/06/20 06:24:47;;;;;;;8.83;3.65;;;;;;;22.35;57.04;98232.05;1347962;86;21047;-70
2022/06/20 06:26:52;;;;;;;16.77;3.60;;;;;;;22.44;57.07;98229.67;1351358;86;21156;-70
2022/06/20 06:28:54;;;;;;;18.57;3.45;;;;;;;22.50;56.97;98233.05;1336943;86;81557;-69
2022/06/20 06:31:08;;;;;;;10.50;3.20;;;;;;;22.57;56.91;98228.66;1335623;87;21052;-70
2022/06/20 06:33:20;;;;;;;16.67;6.15;;;;;;;22.67;56.82;98222.28;1336310;87;21152;-70
2022/06/20 06:35:43;;;;;;;8.83;3.50;;;;;;;22.72;56.63;98221.25;1310152;89;21071;-73
2022/06/20 06:38:06;;;;;;;4.33;2.58;;;;;;;22.82;56.37;98221.92;1306473;89;21110;-69
2022/06/20 06:40:18;;;;;;;16.40;3.00;;;;;;;22.89;56.17;98222.08;1304053;89;81154;-70
2022/06/20 06:42:20;;;;;;;9.35;3.00;;;;;;;23.02;56.03;98214.81;1282201;91;21156;-70
2022/06/20 06:44:27;;;;;;;39.00;3.27;;;;;;;23.08;56.08;98217.66;1300903;90;21944;-70
2022/06/20 06:46:34;;;;;;;18.35;3.35;;;;;;;23.19;55.82;98221.86;1287200;89;81042;-69
2022/06/20 06:48:41;;;;;;;13.00;3.30;;;;;;;23.29;55.92;98222.48;1300960;88;21105;-70
2022/06/20 06:51:04;;;;;;;21.82;3.00;;;;;;;23.37;55.71;98219.41;1301355;90;21416;-70
2022/06/20 06:53:18;;;;;;;6.45;2.90;;;;;;;23.45;55.57;98226.10;1379906;85;81710;-70
2022/06/20 06:55:25;;;;;;;5.70;2.83;;;;;;;23.57;55.40;98217.98;1384307;84;21076;-69
2022/06/20 06:57:40;;;;;;;7.30;2.80;;;;;;;23.68;55.20;98215.92;1380821;84;81867;-68
2022/06/20 07:00:06;;;;;;;5.33;2.83;;;;;;;23.77;54.83;98207.62;1386347;85;21041;-70
2022/06/20 07:02:14;;;;;;;6.00;2.65;;;;;;;23.87;54.75;98207.88;1383071;85;21009;-69
2022/06/20 07:04:38;;;;;;;9.00;2.62;;;;;;;23.95;54.23;98199.30;1367472;84;81846;-69
2022/06/20 07:06:55;;;;;;;7.65;2.87;;;;;;;24.08;53.77;98200.55;1401222;83;21558;-70
2022/06/20 07:09:02;;;;;;;6.65;2.72;;;;;;;24.14;53.86;98203.86;1394549;83;21074;-69
2022/06/20 07:11:09;;;;;;;6.40;2.65;;;;;;;24.23;53.96;98204.13;1394819;83;81963;-69
2022/06/20 07:13:17;;;;;;;7.47;2.60;;;;;;;24.33;53.41;98200.33;1397269;83;21066;-70
2022/06/20 07:15:21;;;;;;;12.05;3.00;;;;;;;24.40;53.34;98203.99;1392594;85;80643;-70
2022/06/20 07:17:35;;;;;;;8.10;2.72;;;;;;;24.46;53.36;98203.25;1396425;85;21594;-70
2022/06/20 07:19:39;;;;;;;9.43;2.70;;;;;;;24.53;53.09;98203.36;1394430;85;21530;-70
2022/06/20 07:21:42;;;;;;;5.20;2.52;;;;;;;24.57;53.10;98198.77;1394055;85;81410;-70
2022/06/20 07:23:46;;;;;;;6.70;2.90;;;;;;;24.59;52.91;98197.23;1397345;85;22053;-70
2022/06/20 07:25:50;;;;;;;3.98;2.75;;;;;;;24.65;52.50;98198.72;1395863;85;21022;-70
2022/06/20 07:27:55;;;;;;;6.78;2.72;;;;;;;24.73;52.33;98201.85;1394708;83;81334;-70
2022/06/20 07:30:18;;;;;;;11.70;2.75;;;;;;;24.77;52.10;98199.12;1396036;85;21065;-69
2022/06/20 07:32:31;;;;;;;8.60;3.17;;;;;;;24.74;52.26;98182.47;1396860;85;21575;-70
2022/06/20 07:34:39;;;;;;;8.68;2.75;;;;;;;24.82;52.25;98195.86;1393211;83;81531;-70
2022/06/20 07:36:47;;;;;;;10.88;2.50;;;;;;;24.88;52.05;98199.67;1393656;83;21062;-70
2022/06/20 07:38:54;;;;;;;9.70;2.65;;;;;;;24.90;51.56;98193.59;1396380;83;20999;-69
2022/06/20 07:41:05;;;;;;;7.65;2.25;;;;;;;24.95;51.55;98188.47;1393505;83;81389;-69
2022/06/20 07:43:14;;;;;;;6.15;2.50;;;;;;;24.76;51.34;98152.14;1392611;85;21617;-70
2022/06/20 07:45:22;;;;;;;9.03;2.95;;;;;;;25.01;50.95;98188.26;1392280;85;21608;-70
2022/06/20 07:47:32;;;;;;;6.83;2.67;;;;;;;25.02;51.12;98183.17;1394180;85;22405;-70
2022/06/20 07:49:37;;;;;;;6.72;2.47;;;;;;;25.06;51.01;98184.47;1395719;83;21565;-70
2022/06/20 07:51:41;;;;;;;8.70;2.58;;;;;;;25.11;51.07;98181.53;1396640;85;80752;-70
2022/06/20 07:53:55;;;;;;;3.67;2.50;;;;;;;25.21;50.92;98181.77;1397227;85;21010;-70
2022/06/20 07:56:03;;;;;;;10.88;2.70;;;;;;;25.25;50.88;98183.89;1395921;85;21081;-70
2022/06/20 07:58:13;;;;;;;40.65;4.67;;;;;;;25.33;50.88;98185.17;1395820;85;81360;-70
2022/06/20 08:00:22;;;;;;;18.07;2.70;;;;;;;25.43;50.49;98183.52;1384030;84;21110;-70
2022/06/20 08:02:30;;;;;;;7.67;2.33;;;;;;;25.46;50.29;98176.92;1396929;83;21506;-69
2022/06/20 08:04:33;;;;;;;5.25;2.45;;;;;;;25.51;50.16;98169.09;1396422;83;81797;-70
2022/06/20 08:06:45;;;;;;;22.70;2.87;;;;;;;25.58;50.15;98171.87;1379148;84;21522;-70
2022/06/20 08:08:56;;;;;;;15.23;3.22;;;;;;;25.62;49.71;98169.95;1398303;83;21037;-70
2022/06/20 08:10:58;;;;;;;;;;;;;;;25.70;49.63;98168.15;1379773;84;81900;-71
2022/06/20 08:13:15;;;;;;;7.12;3.05;;;;;;;25.80;49.36;98172.73;1397413;83;20185;-70
2022/06/20 08:15:26;;;;;;;10.70;3.00;;;;;;;25.86;49.41;98169.25;1399009;83;21459;-70
2022/06/20 08:17:30;;;;;;;6.47;2.75;;;;;;;25.96;49.29;98167.09;1395605;83;21613;-71
2022/06/20 08:19:32;;;;;;;5.47;3.15;;;;;;;26.00;49.05;98160.27;1396161;83;21159;-70
2022/06/20 08:21:42;;;;;;;24.23;3.37;;;;;;;26.07;49.04;98158.17;1401485;83;81633;-71
2022/06/20 08:23:45;;;;;;;;;;;;;;;26.12;48.88;98146.27;1401250;83;21006;-69
2022/06/20 08:25:52;;;;;;;5.37;2.70;;;;;;;26.15;48.23;98138.63;1402391;84;20180;-71
2022/06/20 08:27:57;;;;;;;7.78;2.70;;;;;;;26.19;48.52;98132.83;1397891;84;81534;-70
2022/06/20 08:30:09;;;;;;;5.00;2.70;;;;;;;26.32;48.65;98127.02;1401584;84;21240;-70
2022/06/20 08:32:14;;;;;;;17.70;2.55;;;;;;;26.50;48.22;98122.96;1394803;83;21049;-69
2022/06/20 08:34:22;;;;;;;11.12;3.27;;;;;;;26.61;48.10;98118.38;1398135;83;81517;-70
2022/06/20 08:36:32;;;;;;;15.60;2.83;;;;;;;26.75;48.04;98113.06;1393577;85;21010;-70
2022/06/20 08:38:57;;;;;;;6.72;2.77;;;;;;;26.90;47.81;98113.77;1391327;85;21015;-70
2022/06/20 08:41:31;;;;;;;4.95;2.85;;;;;;;27.09;47.69;98104.08;1393171;83;81850;-69
2022/06/20 08:43:38;;;;;;;6.65;3.00;;;;;;;27.29;47.43;98098.75;1396732;83;21022;-70
2022/06/20 08:45:52;;;;;;;16.57;3.33;;;;;;;27.51;47.34;98090.50;1394100;85;80572;-69
2022/06/20 08:48:08;;;;;;;20.08;2.72;;;;;;;27.77;47.30;98088.34;1351254;87;21210;-69
2022/06/20 08:50:37;;;;;;;23.20;2.80;;;;;;;27.98;47.06;98080.57;1350494;87;21167;-71
2022/06/20 08:53:13;;;;;;;17.87;2.90;;;;;;;28.23;46.86;98079.94;1309240;90;80803;-70
2022/06/20 08:55:26;;;;;;;9.30;1.80;;;;;;;28.41;46.17;98077.11;1308475;89;21080;-70
2022/06/20 08:57:43;;;;;;;30.15;3.17;;;;;;;28.56;45.70;98080.41;1308347;89;81161;-70
2022/06/20 09:00:09;;;;;;;8.43;2.33;;;;;;;28.71;45.70;98070.17;1310149;89;21089;-70
2022/06/20 09:02:23;;;;;;;8.65;2.25;;;;;;;28.92;45.51;98061.44;1308737;90;21078;-70
2022/06/20 09:04:34;;;;;;;6.50;2.27;;;;;;;29.07;45.22;98057.64;1307533;89;81888;-70
2022/06/20 09:07:07;;;;;;;6.87;2.62;;;;;;;29.25;44.87;98052.34;1310469;89;21096;-71
2022/06/20 09:09:14;;;;;;;7.78;2.27;;;;;;;29.38;44.47;98053.63;1310017;90;21548;-71
2022/06/20 09:11:47;;;;;;;5.97;2.17;;;;;;;29.43;44.44;98056.22;1306823;89;81348;-71
2022/06/20 09:14:21;;;;;;;10.98;2.00;;;;;;;29.49;43.80;98052.61;1308799;89;21595;-70
2022/06/20 09:16:35;;;;;;;4.97;1.77;;;;;;;29.57;43.94;98060.50;1307711;89;80864;-70
2022/06/20 09:18:51;;;;;;;16.02;2.10;;;;;;;29.65;43.75;98055.34;1309226;90;21605;-70
2022/06/20 09:21:14;;;;;;;7.58;2.72;;;;;;;29.76;43.41;98049.19;1307587;90;21098;-70
2022/06/20 09:23:24;;;;;;;9.18;1.98;;;;;;;29.82;43.26;98054.27;1308581;90;81060;-70
2022/06/20 09:25:49;;;;;;;17.45;2.10;;;;;;;29.93;42.78;98055.46;1307407;89;21071;-71
2022/06/20 09:28:20;;;;;;;5.67;2.30;;;;;;;30.02;42.71;98045.98;1314510;85;81829;-70
2022/06/20 09:30:24;;;;;;;5.40;2.30;;;;;;;30.06;41.84;98039.88;1399238;85;21026;-70
2022/06/20 09:33:01;;;;;;;9.13;2.30;;;;;;;29.87;42.06;97996.06;1394365;85;21558;-71
2022/06/20 09:35:25;;;;;;;15.55;2.70;;;;;;;30.19;41.70;98027.21;1394658;84;81276;-71
2022/06/20 09:37:39;;;;;;;7.72;2.27;;;;;;;30.25;41.40;98018.14;1394473;83;21093;-70
2022/06/20 09:39:47;;;;;;;7.92;1.92;;;;;;;30.27;40.95;98013.84;1394840;85;81499;-70
2022/06/20 09:41:57;;;;;;;9.45;2.40;;;;;;;30.32;40.83;98009.42;1396146;85;21046;-71
2022/06/20 09:44:17;;;;;;;5.97;1.85;;;;;;;30.37;40.75;98009.55;1396101;85;21042;-71
2022/06/20 09:46:28;;;;;;;15.32;2.47;;;;;;;30.43;39.78;98004.27;1392960;83;81503;-71
2022/06/20 09:48:41;;;;;;;18.02;2.58;;;;;;;30.44;40.29;98003.25;1397753;85;21538;-71
2022/06/20 09:51:15;;;;;;;23.45;2.87;;;;;;;30.60;40.40;97995.00;1398088;83;21007;-70
2022/06/20 09:53:46;;;;;;;15.00;2.37;;;;;;;30.81;40.44;97989.59;1396611;85;81485;-71
2022/06/20 09:55:59;;;;;;;20.32;3.17;;;;;;;30.95;40.03;97981.58;1393720;85;21078;-71
2022/06/20 09:58:19;;;;;;;16.82;2.60;;;;;;;31.03;39.52;97967.67;1395046;83;81607;-70
2022/06/20 10:00:24;;;;;;;15.30;2.60;;;;;;;31.31;39.97;97969.48;1396802;85;21109;-70
2022/06/20 10:02:35;;;;;;;15.10;2.80;;;;;;;31.54;38.89;97966.80;1397249;85;21159;-71
2022/06/20 10:05:03;;;;;;;16.48;2.30;;;;;;;31.63;38.66;97957.77;1396141;83;82020;-70
2022/06/20 10:07:23;;;;;;;6.17;2.50;;;;;;;31.81;39.21;97956.01;1395071;85;21295;-70
2022/06/20 10:09:52;;;;;;;22.37;2.80;;;;;;;32.07;38.75;97953.33;1394718;85;81700;-70
2022/06/20 10:12:15;;;;;;;10.38;2.55;;;;;;;32.29;38.98;97951.35;1397885;83;21002;-70
2022/06/20 10:14:34;;;;;;;38.53;3.42;;;;;;;32.62;38.67;97942.48;1395165;85;21039;-70
2022/06/20 10:16:56;;;;;;;9.03;2.70;;;;;;;32.74;38.25;97946.03;1393985;83;81671;-71